createdAt,value
2023-03-07T00:01:05.807Z,15.15
2023-03-07T00:03:39.425Z,16.80
2023-03-07T00:06:13.116Z,19.37
2023-03-07T00:08:46.022Z,15.58
2023-03-07T00:11:19.053Z,16.50
2023-03-07T00:13:52.415Z,13.05
2023-03-07T00:16:26.729Z,13.60
2023-03-07T00:19:00.903Z,11.55
2023-03-07T00:21:33.977Z,13.72
2023-03-07T00:24:08.213Z,12.28
2023-03-07T00:26:41.374Z,13.90
2023-03-07T00:29:14.342Z,14.00
2023-03-07T00:31:48.086Z,15.45
2023-03-07T00:34:21.547Z,13.10
2023-03-07T00:36:55.215Z,19.10
2023-03-07T00:39:28.854Z,14.80
2023-03-07T00:42:01.921Z,16.62
2023-03-07T00:44:34.849Z,18.20
2023-03-07T00:47:09.056Z,16.05
2023-03-07T00:49:41.966Z,15.08
2023-03-07T00:52:14.802Z,16.45
2023-03-07T00:54:48.047Z,15.43
2023-03-07T00:57:21.558Z,15.15
2023-03-07T00:59:54.315Z,13.60
2023-03-07T01:02:27.259Z,15.70
2023-03-07T01:05:00.656Z,15.78
2023-03-07T01:07:33.731Z,17.10
2023-03-07T01:10:07.730Z,16.87
2023-03-07T01:12:41.223Z,20.48
2023-03-07T01:15:14.705Z,14.47
2023-03-07T01:20:20.901Z,19.55
2023-03-07T01:22:53.620Z,16.27
2023-03-07T01:25:27.323Z,19.57
2023-03-07T01:28:00.699Z,17.07
2023-03-07T01:30:34.866Z,17.75
2023-03-07T01:33:08.412Z,17.05
2023-03-07T01:35:42.496Z,19.60
2023-03-07T01:38:15.596Z,19.12
2023-03-07T01:40:48.760Z,13.20
2023-03-07T01:43:30.820Z,15.20
2023-03-07T01:46:33.294Z,17.05
2023-03-07T01:52:19.508Z,15.50
2023-03-07T01:55:01.400Z,17.73
2023-03-07T01:57:39.696Z,17.27
2023-03-07T02:00:31.832Z,20.25
2023-03-07T02:03:23.665Z,18.50
2023-03-07T02:06:01.066Z,25.37
2023-03-07T02:08:35.185Z,27.35
2023-03-07T02:11:09.732Z,23.83
2023-03-07T02:13:42.862Z,22.42
2023-03-07T02:16:16.317Z,18.62
2023-03-07T02:18:51.619Z,24.95
2023-03-07T02:21:29.184Z,17.45
2023-03-07T02:24:29.023Z,17.23
2023-03-07T02:27:02.668Z,16.30
2023-03-07T02:29:36.947Z,18.20
2023-03-07T02:32:11.859Z,20.70
2023-03-07T02:34:44.913Z,17.90
2023-03-07T02:37:32.804Z,18.85
2023-03-07T02:40:12.766Z,16.13
2023-03-07T02:42:47.192Z,16.27
2023-03-07T02:45:21.295Z,20.37
2023-03-07T02:47:54.107Z,17.95
2023-03-07T02:50:26.955Z,16.60
2023-03-07T02:52:59.816Z,15.75
2023-03-07T02:55:33.990Z,18.23
2023-03-07T02:58:08.830Z,15.75
2023-03-07T03:00:41.862Z,16.10
2023-03-07T03:03:14.865Z,17.80
2023-03-07T03:05:47.868Z,14.78
2023-03-07T03:08:22.618Z,15.80
2023-03-07T03:10:57.014Z,15.13
2023-03-07T03:13:31.277Z,19.73
2023-03-07T03:16:05.234Z,16.73
2023-03-07T03:18:39.027Z,16.27
2023-03-07T03:21:15.216Z,13.65
2023-03-07T03:23:48.025Z,13.08
2023-03-07T03:26:22.365Z,17.27
2023-03-07T03:28:56.720Z,14.83
2023-03-07T03:31:30.585Z,13.68
2023-03-07T03:34:05.929Z,16.15
2023-03-07T03:36:39.141Z,14.58
2023-03-07T03:39:14.813Z,16.42
2023-03-07T03:41:49.522Z,18.27
2023-03-07T03:44:22.942Z,21.03
2023-03-07T03:46:56.177Z,18.25
2023-03-07T03:49:30.519Z,18.90
2023-03-07T03:52:03.155Z,17.32
2023-03-07T03:54:36.226Z,18.75
2023-03-07T03:57:11.068Z,18.12
2023-03-07T04:02:17.682Z,24.98
2023-03-07T04:04:50.725Z,32.17
2023-03-07T04:07:23.717Z,23.02
2023-03-07T04:09:56.497Z,21.33
2023-03-07T04:12:30.047Z,20.62
2023-03-07T04:15:02.806Z,20.35
2023-03-07T04:17:37.273Z,27.95
2023-03-07T04:20:13.333Z,22.20
2023-03-07T04:22:46.350Z,20.65
2023-03-07T04:25:19.117Z,29.45
2023-03-07T04:27:52.257Z,23.75
2023-03-07T04:30:26.740Z,18.60
2023-03-07T04:33:01.089Z,22.62
2023-03-07T04:35:34.220Z,17.23
2023-03-07T04:38:08.827Z,24.60
2023-03-07T04:40:42.155Z,20.52
2023-03-07T04:43:16.738Z,20.75
2023-03-07T04:45:49.556Z,20.65
2023-03-07T04:48:24.228Z,27.73
2023-03-07T04:50:57.031Z,28.15
2023-03-07T04:53:30.179Z,37.40
2023-03-07T04:56:06.320Z,33.88
2023-03-07T04:58:40.281Z,31.60
2023-03-07T05:01:13.580Z,44.67
2023-03-07T05:06:21.301Z,27.58
2023-03-07T05:08:56.596Z,21.55
2023-03-07T05:11:29.726Z,28.70
2023-03-07T05:14:03.522Z,21.82
2023-03-07T05:16:36.775Z,20.15
2023-03-07T05:19:10.597Z,21.90
2023-03-07T05:21:44.464Z,19.67
2023-03-07T05:24:19.037Z,18.42
2023-03-07T05:26:51.898Z,19.48
2023-03-07T05:29:24.768Z,15.53
2023-03-07T05:31:59.205Z,13.10
2023-03-07T05:34:32.190Z,15.63
2023-03-07T05:37:05.785Z,10.45
2023-03-07T05:39:39.656Z,15.23
2023-03-07T05:42:13.564Z,11.65
2023-03-07T05:44:47.452Z,11.50
2023-03-07T05:47:20.757Z,14.37
2023-03-07T05:49:54.231Z,22.50
2023-03-07T05:52:28.449Z,16.02
2023-03-07T05:55:01.185Z,17.23
2023-03-07T05:57:34.345Z,22.25
2023-03-07T06:00:09.017Z,23.47
2023-03-07T06:02:50.015Z,24.90
2023-03-07T06:05:25.271Z,31.30
2023-03-07T06:07:58.430Z,19.10
2023-03-07T06:10:31.249Z,17.05
2023-03-07T06:13:04.058Z,16.07
2023-03-07T06:15:37.145Z,13.28
2023-03-07T06:20:44.368Z,14.05
2023-03-07T06:23:17.682Z,16.67
2023-03-07T06:25:50.912Z,15.48
2023-03-07T06:28:24.632Z,17.20
2023-03-07T06:30:58.156Z,18.35
2023-03-07T06:33:32.623Z,14.28
2023-03-07T06:36:11.812Z,17.77
2023-03-07T06:38:46.636Z,12.37
2023-03-07T06:41:22.482Z,16.60
2023-03-07T06:43:56.524Z,14.95
2023-03-07T06:46:31.700Z,15.35
2023-03-07T06:49:06.879Z,14.65
2023-03-07T06:51:40.372Z,17.48
2023-03-07T06:54:13.472Z,13.77
2023-03-07T06:56:46.576Z,14.43
2023-03-07T06:59:21.325Z,16.73
2023-03-07T07:01:54.859Z,15.23
2023-03-07T07:04:28.354Z,21.52
2023-03-07T07:07:04.040Z,16.45
2023-03-07T07:09:38.668Z,15.48
2023-03-07T07:12:12.094Z,12.55
2023-03-07T07:14:46.541Z,18.87
2023-03-07T07:19:53.257Z,15.35
2023-03-07T07:22:26.204Z,16.00
2023-03-07T07:24:59.164Z,20.17
2023-03-07T07:27:31.847Z,21.95
2023-03-07T07:30:08.258Z,16.70
2023-03-07T07:32:42.578Z,15.28
2023-03-07T07:35:16.174Z,16.20
2023-03-07T07:37:49.936Z,13.22
2023-03-07T07:40:22.907Z,17.85
2023-03-07T07:42:56.092Z,14.77
2023-03-07T07:45:34.462Z,16.65
2023-03-07T07:48:09.024Z,13.53
2023-03-07T07:50:42.571Z,16.45
2023-03-07T07:53:18.063Z,16.17
2023-03-07T07:55:51.300Z,13.58
2023-03-07T07:58:24.275Z,20.77
2023-03-07T08:00:57.421Z,19.65
2023-03-07T08:03:30.322Z,19.35
2023-03-07T08:06:03.823Z,16.85
2023-03-07T08:08:37.581Z,18.27
2023-03-07T08:11:10.932Z,18.65
2023-03-07T08:13:45.144Z,15.53
2023-03-07T08:16:23.482Z,20.52
2023-03-07T08:18:58.640Z,15.95
2023-03-07T08:21:31.743Z,16.65
2023-03-07T08:24:05.192Z,17.67
2023-03-07T08:26:38.664Z,18.62
2023-03-07T08:29:11.767Z,17.92
2023-03-07T08:31:50.998Z,21.48
2023-03-07T08:34:24.145Z,20.40
2023-03-07T08:36:56.845Z,15.32
2023-03-07T08:39:31.188Z,14.13
2023-03-07T08:42:04.052Z,21.03
2023-03-07T08:44:37.610Z,16.90
2023-03-07T08:47:12.526Z,20.85
2023-03-07T08:49:45.777Z,17.00
2023-03-07T08:52:19.267Z,16.12
2023-03-07T08:54:52.439Z,17.02
2023-03-07T08:57:26.159Z,18.40
2023-03-07T08:59:59.178Z,15.67
2023-03-07T09:02:32.201Z,18.92
2023-03-07T09:05:05.558Z,18.05
2023-03-07T09:07:38.590Z,18.75
2023-03-07T09:10:13.802Z,17.42
2023-03-07T09:12:47.036Z,19.57
2023-03-07T09:15:20.407Z,16.17
2023-03-07T09:17:54.067Z,15.90
2023-03-07T09:20:26.890Z,23.67
2023-03-07T09:22:59.796Z,20.02
2023-03-07T09:25:32.636Z,20.80
2023-03-07T09:28:05.514Z,20.77
2023-03-07T09:30:39.359Z,19.52
2023-03-07T09:33:13.939Z,20.37
2023-03-07T09:35:46.924Z,18.15
2023-03-07T09:38:19.913Z,19.52
2023-03-07T09:40:53.609Z,17.55
2023-03-07T09:43:28.392Z,19.20
2023-03-07T09:46:15.941Z,19.67
2023-03-07T09:49:00.972Z,21.93
2023-03-07T09:51:40.251Z,16.27
2023-03-07T09:54:32.109Z,18.57
2023-03-07T09:57:05.411Z,16.20
2023-03-07T09:59:51.477Z,16.12
2023-03-07T10:02:47.093Z,17.87
2023-03-07T10:05:41.964Z,18.07
2023-03-07T10:08:25.274Z,15.23
2023-03-07T10:11:19.068Z,18.83
2023-03-07T10:14:12.397Z,19.10
2023-03-07T10:16:59.287Z,17.90
2023-03-07T10:20:06.156Z,19.75
2023-03-07T10:23:01.788Z,21.00
2023-03-07T10:25:54.764Z,16.80
2023-03-07T10:28:36.884Z,23.83
2023-03-07T10:31:20.357Z,18.55
2023-03-07T10:33:56.425Z,20.02
2023-03-07T10:36:39.266Z,18.30
2023-03-07T10:39:37.750Z,15.53
2023-03-07T10:42:14.921Z,18.15
2023-03-07T10:44:49.269Z,18.32
2023-03-07T10:47:30.181Z,16.52
2023-03-07T10:50:36.552Z,21.23
2023-03-07T10:53:22.895Z,23.98
2023-03-07T10:56:17.134Z,16.60
2023-03-07T10:59:09.719Z,14.18
2023-03-07T11:01:47.239Z,14.95
2023-03-07T11:04:25.830Z,16.52
2023-03-07T11:07:03.555Z,18.05
2023-03-07T11:09:39.242Z,20.55
2023-03-07T11:12:16.764Z,15.83
2023-03-07T11:14:55.262Z,17.00
2023-03-07T11:17:45.229Z,16.20
2023-03-07T11:20:34.692Z,15.58
2023-03-07T11:23:31.385Z,18.12
2023-03-07T11:26:21.388Z,15.60
2023-03-07T11:29:12.832Z,14.65
2023-03-07T11:31:59.817Z,18.52
2023-03-07T11:35:03.389Z,15.95
2023-03-07T11:37:53.283Z,17.42
2023-03-07T11:40:43.283Z,12.90
2023-03-07T11:43:33.553Z,16.10
2023-03-07T11:46:26.164Z,13.83
2023-03-07T11:49:36.152Z,19.80
2023-03-07T11:52:22.615Z,26.37
2023-03-07T11:55:27.414Z,16.65
2023-03-07T11:58:24.108Z,18.07
2023-03-07T12:01:35.856Z,13.30
2023-03-07T12:04:37.352Z,16.10
2023-03-07T12:07:32.068Z,18.95
2023-03-07T12:10:15.656Z,15.43
2023-03-07T12:13:09.105Z,13.50
2023-03-07T12:16:13.621Z,18.80
2023-03-07T12:19:07.881Z,13.30
2023-03-07T12:21:57.511Z,16.80
2023-03-07T12:24:38.678Z,14.38
2023-03-07T12:27:23.300Z,13.48
2023-03-07T12:30:01.356Z,19.73
2023-03-07T12:32:35.961Z,16.25
2023-03-07T12:35:33.607Z,14.68
2023-03-07T12:38:25.153Z,12.53
2023-03-07T12:41:25.347Z,21.62
2023-03-07T12:44:00.808Z,14.58
2023-03-07T12:46:49.619Z,15.90
2023-03-07T12:49:49.958Z,11.63
2023-03-07T12:52:51.004Z,12.23
2023-03-07T12:55:34.564Z,13.32
2023-03-07T12:58:44.965Z,11.57
2023-03-07T13:01:30.841Z,19.73
2023-03-07T13:04:35.536Z,17.10
2023-03-07T13:07:26.441Z,12.88
2023-03-07T13:10:01.132Z,12.53
2023-03-07T13:12:39.494Z,15.93
2023-03-07T13:15:25.663Z,15.50
2023-03-07T13:18:02.184Z,19.87
2023-03-07T13:20:41.846Z,27.93
2023-03-07T13:23:25.036Z,15.93
2023-03-07T13:26:00.887Z,12.70
2023-03-07T13:28:46.013Z,11.40
2023-03-07T13:31:26.527Z,13.75
2023-03-07T13:34:01.113Z,14.90
2023-03-07T13:36:39.298Z,13.03
2023-03-07T13:39:38.132Z,13.95
2023-03-07T13:42:49.037Z,14.07
2023-03-07T13:45:45.135Z,11.93
2023-03-07T13:48:36.572Z,15.98
2023-03-07T13:51:12.597Z,12.85
2023-03-07T13:53:59.935Z,15.43
2023-03-07T13:56:40.262Z,19.73
2023-03-07T13:59:17.732Z,15.55
2023-03-07T14:01:55.863Z,12.18
2023-03-07T14:04:55.246Z,16.45
2023-03-07T14:07:37.875Z,11.38
2023-03-07T14:10:32.167Z,11.30
2023-03-07T14:16:32.227Z,13.70
2023-03-07T14:19:33.811Z,14.85
2023-03-07T14:22:37.314Z,13.22
2023-03-07T14:25:34.902Z,17.10
2023-03-07T14:28:26.354Z,22.85
2023-03-07T14:31:04.230Z,17.27
2023-03-07T14:33:42.433Z,17.25
2023-03-07T14:36:24.674Z,16.30
2023-03-07T14:39:02.017Z,12.33
2023-03-07T14:42:06.968Z,15.70
2023-03-07T14:45:20.676Z,15.23
2023-03-07T14:48:29.449Z,13.72
2023-03-07T14:51:15.521Z,17.35
2023-03-07T14:53:49.103Z,19.10
2023-03-07T14:56:34.223Z,13.70
2023-03-07T14:59:10.798Z,20.55
2023-03-07T15:01:44.870Z,13.88
2023-03-07T15:04:33.866Z,16.50
2023-03-07T15:07:10.110Z,20.52
2023-03-07T15:09:44.123Z,22.27
2023-03-07T15:12:24.476Z,22.32
2023-03-07T15:15:00.629Z,28.65
2023-03-07T15:17:42.002Z,24.12
2023-03-07T15:20:26.085Z,20.82
2023-03-07T15:23:05.574Z,19.37
2023-03-07T15:25:39.168Z,19.32
2023-03-07T15:28:21.804Z,19.37
2023-03-07T15:30:56.384Z,15.85
2023-03-07T15:33:33.947Z,16.10
2023-03-07T15:36:17.763Z,22.10
2023-03-07T15:38:53.296Z,22.42
2023-03-07T15:41:36.485Z,29.18
2023-03-07T15:44:17.044Z,24.02
2023-03-07T15:46:58.169Z,19.80
2023-03-07T15:49:53.459Z,31.23
2023-03-07T15:52:36.053Z,18.85
2023-03-07T15:55:25.067Z,21.52
2023-03-07T15:58:01.849Z,28.83
2023-03-07T16:00:40.896Z,32.25
2023-03-07T16:03:29.724Z,60.28
2023-03-07T16:06:04.214Z,52.27
2023-03-07T16:08:38.597Z,49.90
2023-03-07T16:11:12.989Z,50.98
2023-03-07T16:13:46.652Z,52.70
2023-03-07T16:16:25.646Z,38.57
2023-03-07T16:18:58.776Z,51.28
2023-03-07T16:21:32.307Z,53.85
2023-03-07T16:24:06.260Z,55.33
2023-03-07T16:26:38.994Z,49.05
2023-03-07T16:29:21.884Z,57.50
2023-03-07T16:31:55.539Z,47.70
2023-03-07T16:34:29.105Z,43.45
2023-03-07T16:37:01.916Z,45.92
2023-03-07T16:39:35.283Z,53.28
2023-03-07T16:42:09.500Z,45.27
2023-03-07T16:44:43.155Z,45.10
2023-03-07T16:47:20.210Z,40.17
2023-03-07T16:49:53.221Z,40.63
2023-03-07T16:52:26.687Z,46.03
2023-03-07T16:54:59.603Z,40.37
2023-03-07T16:57:33.385Z,34.78
2023-03-07T17:00:08.675Z,38.40
2023-03-07T17:02:42.140Z,31.12
2023-03-07T17:05:19.631Z,36.65
2023-03-07T17:07:58.058Z,36.70
2023-03-07T17:10:31.125Z,37.55
2023-03-07T17:13:06.532Z,36.55
2023-03-07T17:18:14.301Z,47.45
2023-03-07T17:20:47.735Z,43.87
2023-03-07T17:25:55.129Z,46.53
2023-03-07T17:28:27.994Z,52.98
2023-03-07T17:31:00.941Z,65.70
2023-03-07T17:33:34.032Z,63.10
2023-03-07T17:36:07.403Z,68.22
2023-03-07T17:38:40.487Z,61.97
2023-03-07T17:41:13.720Z,58.85
2023-03-07T17:43:47.228Z,65.28
2023-03-07T17:46:20.057Z,64.47
2023-03-07T17:48:55.035Z,63.08
2023-03-07T17:51:28.128Z,60.83
2023-03-07T17:54:01.558Z,63.17
2023-03-07T17:56:35.586Z,59.40
2023-03-07T17:59:09.020Z,75.95
2023-03-07T18:01:43.310Z,65.83
2023-03-07T18:04:16.545Z,55.30
2023-03-07T18:06:49.780Z,64.10
2023-03-07T18:09:23.975Z,57.93
2023-03-07T18:11:58.256Z,48.87
2023-03-07T18:14:33.654Z,48.83
2023-03-07T18:19:40.638Z,64.77
2023-03-07T18:22:13.721Z,61.37
2023-03-07T18:24:47.466Z,60.70
2023-03-07T18:29:52.990Z,58.25
2023-03-07T18:32:28.323Z,64.67
2023-03-07T18:35:00.804Z,67.08
2023-03-07T18:37:34.680Z,60.95
2023-03-07T18:40:09.314Z,55.48
2023-03-07T18:42:43.561Z,60.78
2023-03-07T18:45:16.432Z,55.90
2023-03-07T18:47:50.710Z,52.83
2023-03-07T18:50:23.550Z,55.30
2023-03-07T18:52:58.429Z,51.45
2023-03-07T18:55:32.986Z,55.48
2023-03-07T18:58:05.732Z,50.63
2023-03-07T19:00:38.688Z,52.75
2023-03-07T19:03:11.605Z,53.23
2023-03-07T19:05:52.621Z,53.90
2023-03-07T19:08:25.553Z,56.02
2023-03-07T19:10:59.074Z,58.08
2023-03-07T19:13:32.563Z,47.88
2023-03-07T19:16:08.638Z,45.67
2023-03-07T19:18:42.386Z,38.23
2023-03-07T19:21:22.228Z,38.15
2023-03-07T19:23:58.381Z,40.70
2023-03-07T19:26:31.537Z,35.88
2023-03-07T19:29:04.594Z,43.02
2023-03-07T19:31:37.560Z,39.95
2023-03-07T19:34:11.466Z,40.60
2023-03-07T19:36:44.357Z,36.30
2023-03-07T19:39:19.427Z,45.63
2023-03-07T19:41:52.822Z,42.35
2023-03-07T19:44:26.844Z,35.60
2023-03-07T19:46:59.476Z,39.98
2023-03-07T19:49:32.824Z,40.07
2023-03-07T19:52:06.075Z,39.18
2023-03-07T19:54:40.373Z,38.17
2023-03-07T19:57:15.124Z,35.03
2023-03-07T19:59:50.078Z,34.25
2023-03-07T20:02:23.178Z,34.33
2023-03-07T20:07:30.863Z,30.72
2023-03-07T20:10:03.790Z,26.35
2023-03-07T20:12:37.199Z,26.33
2023-03-07T20:15:12.789Z,22.98
2023-03-07T20:17:46.455Z,27.60
2023-03-07T20:20:19.565Z,27.95
2023-03-07T20:22:58.948Z,27.15
2023-03-07T20:25:32.539Z,26.50
2023-03-07T20:28:06.637Z,29.92
2023-03-07T20:30:41.150Z,28.32
2023-03-07T20:33:15.023Z,29.82
2023-03-07T20:35:48.473Z,31.62
2023-03-07T20:38:22.098Z,31.48
2023-03-07T20:41:04.740Z,28.20
2023-03-07T20:46:16.416Z,28.42
2023-03-07T20:48:52.001Z,29.27
2023-03-07T20:51:28.347Z,30.97
2023-03-07T20:54:08.667Z,28.40
2023-03-07T20:56:43.915Z,32.78
2023-03-07T20:59:19.649Z,31.60
2023-03-07T21:01:53.211Z,35.73
2023-03-07T21:04:26.535Z,32.55
2023-03-07T21:07:00.128Z,31.12
2023-03-07T21:09:33.918Z,32.28
2023-03-07T21:12:09.022Z,39.60
2023-03-07T21:14:42.157Z,41.00
2023-03-07T21:17:15.354Z,41.60
2023-03-07T21:19:48.353Z,41.42
2023-03-07T21:22:21.339Z,42.98
2023-03-07T21:24:54.357Z,45.95
2023-03-07T21:27:27.698Z,49.03
2023-03-07T21:30:00.765Z,40.10
2023-03-07T21:32:34.405Z,40.70
2023-03-07T21:35:08.468Z,45.73
2023-03-07T21:37:41.369Z,41.55
2023-03-07T21:40:15.964Z,42.67
2023-03-07T21:45:20.560Z,45.17
2023-03-07T21:47:54.606Z,46.92
2023-03-07T21:50:27.984Z,45.98
2023-03-07T21:53:01.194Z,40.88
2023-03-07T21:55:35.260Z,47.38
2023-03-07T21:58:08.783Z,45.85
2023-03-07T22:00:41.718Z,39.60
2023-03-07T22:03:15.607Z,45.80
2023-03-07T22:05:49.442Z,45.38
2023-03-07T22:08:22.527Z,44.80
2023-03-07T22:11:00.799Z,41.42
2023-03-07T22:13:37.192Z,45.83
2023-03-07T22:16:16.543Z,45.30
2023-03-07T22:18:57.648Z,47.27
2023-03-07T22:21:30.988Z,44.15
2023-03-07T22:24:04.554Z,46.87
2023-03-07T22:26:38.671Z,49.75
2023-03-07T22:29:11.496Z,56.20
2023-03-07T22:31:44.841Z,55.93
2023-03-07T22:34:17.842Z,48.38
2023-03-07T22:36:54.769Z,52.65
2023-03-07T22:39:27.477Z,55.25
2023-03-07T22:42:00.659Z,52.58
2023-03-07T22:44:34.292Z,56.85
2023-03-07T22:47:07.944Z,49.45
2023-03-07T22:49:40.765Z,51.70
2023-03-07T22:52:13.660Z,51.63
2023-03-07T22:54:46.366Z,52.93
2023-03-07T22:57:19.176Z,56.60
2023-03-07T22:59:53.815Z,48.77
2023-03-07T23:02:26.673Z,55.17
2023-03-07T23:04:59.574Z,46.18
2023-03-07T23:10:06.052Z,53.23
2023-03-07T23:12:39.448Z,56.42
2023-03-07T23:15:13.515Z,53.33
2023-03-07T23:17:47.280Z,54.35
2023-03-07T23:20:20.342Z,53.98
2023-03-07T23:22:54.350Z,54.20
2023-03-07T23:25:27.252Z,53.02
2023-03-07T23:28:00.112Z,50.60
2023-03-07T23:30:35.046Z,48.07
2023-03-07T23:33:09.598Z,47.58
2023-03-07T23:35:42.716Z,51.37
2023-03-07T23:38:16.464Z,44.40
2023-03-07T23:40:49.069Z,48.63
2023-03-07T23:43:22.669Z,47.13
2023-03-07T23:45:56.715Z,54.45
2023-03-07T23:48:29.841Z,51.45
2023-03-07T23:51:04.313Z,51.80
2023-03-07T23:53:37.266Z,56.23
2023-03-07T23:56:12.120Z,54.35
2023-03-07T23:58:46.936Z,51.68
